createdAt,value
2018-06-11T00:00:30.412Z,24.50
2018-06-11T00:05:35.534Z,24.50
2018-06-11T00:10:38.840Z,24.50
2018-06-11T00:15:42.063Z,24.40
2018-06-11T00:20:45.312Z,24.40
2018-06-11T00:25:48.509Z,24.40
2018-06-11T00:30:51.703Z,24.30
2018-06-11T00:35:54.916Z,24.30
2018-06-11T00:40:58.139Z,24.30
2018-06-11T00:46:01.333Z,24.20
2018-06-11T00:51:04.547Z,24.20
2018-06-11T00:56:08.801Z,24.20
2018-06-11T01:01:12.031Z,24.20
2018-06-11T01:06:15.248Z,24.20
2018-06-11T01:11:18.484Z,24.20
2018-06-11T01:16:22.655Z,24.10
2018-06-11T01:21:25.880Z,24.10
2018-06-11T01:26:29.092Z,24.10
2018-06-11T01:31:32.379Z,24.10
2018-06-11T01:36:35.696Z,24.10
2018-06-11T01:41:39.036Z,24.00
2018-06-11T01:51:45.332Z,24.00
2018-06-11T01:56:48.595Z,23.90
2018-06-11T02:01:51.853Z,23.90
2018-06-11T02:06:55.095Z,23.90
2018-06-11T02:11:58.338Z,23.90
2018-06-11T02:17:01.563Z,23.90
2018-06-11T02:22:04.800Z,23.80
2018-06-11T02:27:08.033Z,23.80
2018-06-11T02:32:11.240Z,23.80
2018-06-11T02:37:14.472Z,23.80
2018-06-11T02:42:17.699Z,23.80
2018-06-11T02:47:20.924Z,23.80
2018-06-11T02:52:24.127Z,23.70
2018-06-11T02:57:27.343Z,23.70
2018-06-11T03:02:30.553Z,23.70
2018-06-11T03:07:33.759Z,23.70
2018-06-11T03:12:37.008Z,23.70
2018-06-11T03:17:40.211Z,23.20
2018-06-11T03:22:43.403Z,23.60
2018-06-11T03:27:46.641Z,23.60
2018-06-11T03:32:49.860Z,23.60
2018-06-11T03:37:53.077Z,23.50
2018-06-11T03:42:56.288Z,23.50
2018-06-11T03:47:59.507Z,23.50
2018-06-11T03:53:02.731Z,23.50
2018-06-11T03:58:05.945Z,23.50
2018-06-11T04:03:09.144Z,23.50
2018-06-11T04:08:12.363Z,23.40
2018-06-11T04:13:15.663Z,23.40
2018-06-11T04:18:18.932Z,23.40
2018-06-11T04:23:22.176Z,23.40
2018-06-11T04:28:25.435Z,23.30
2018-06-11T04:33:28.676Z,23.30
2018-06-11T04:38:31.948Z,23.30
2018-06-11T04:43:35.219Z,23.30
2018-06-11T04:48:39.304Z,23.30
2018-06-11T04:53:42.743Z,23.30
2018-06-11T04:58:45.992Z,23.30
2018-06-11T05:03:49.254Z,23.30
2018-06-11T05:08:52.511Z,23.20
2018-06-11T05:13:55.796Z,23.10
2018-06-11T05:18:59.009Z,23.20
2018-06-11T05:24:02.207Z,23.20
2018-06-11T05:29:05.540Z,23.10
2018-06-11T05:34:08.747Z,23.10
2018-06-11T05:39:11.963Z,23.10
2018-06-11T05:44:15.230Z,23.10
2018-06-11T05:49:18.423Z,23.10
2018-06-11T05:54:21.636Z,23.00
2018-06-11T05:59:24.843Z,23.10
2018-06-11T06:04:28.047Z,23.10
2018-06-11T06:09:31.308Z,23.30
2018-06-11T06:14:34.540Z,22.70
2018-06-11T06:19:37.756Z,23.10
2018-06-11T06:24:40.952Z,23.10
2018-06-11T06:29:44.436Z,23.10
2018-06-11T06:34:48.878Z,23.20
2018-06-11T06:39:51.918Z,23.10
2018-06-11T06:44:55.144Z,23.10
2018-06-11T06:49:58.364Z,23.10
2018-06-11T06:55:01.584Z,23.10
2018-06-11T07:00:04.960Z,23.10
2018-06-11T07:05:08.179Z,22.70
2018-06-11T07:10:11.428Z,23.10
2018-06-11T07:15:14.631Z,23.00
2018-06-11T07:20:17.906Z,23.00
2018-06-11T07:25:21.102Z,23.10
2018-06-11T07:30:24.331Z,23.00
2018-06-11T07:35:27.548Z,23.10
2018-06-11T07:40:30.783Z,23.00
2018-06-11T07:45:33.995Z,23.10
2018-06-11T07:50:37.220Z,23.10
2018-06-11T07:55:40.472Z,23.10
2018-06-11T08:00:43.672Z,23.10
2018-06-11T08:05:46.877Z,23.00
2018-06-11T08:10:50.123Z,22.90
2018-06-11T08:15:53.355Z,23.20
2018-06-11T08:20:56.584Z,23.20
2018-06-11T08:25:59.819Z,23.20
2018-06-11T08:31:03.048Z,22.70
2018-06-11T08:36:06.256Z,23.30
2018-06-11T08:41:09.707Z,22.90
2018-06-11T08:46:12.928Z,23.30
2018-06-11T08:51:16.196Z,23.00
2018-06-11T08:56:19.423Z,23.30
2018-06-11T09:01:22.673Z,23.30
2018-06-11T09:06:25.906Z,23.40
2018-06-11T09:11:29.192Z,23.40
2018-06-11T09:16:32.438Z,23.40
2018-06-11T09:21:35.652Z,23.40
2018-06-11T09:26:38.884Z,23.40
2018-06-11T09:31:42.113Z,23.60
2018-06-11T09:36:45.345Z,23.60
2018-06-11T09:41:48.579Z,23.50
2018-06-11T09:46:51.800Z,23.40
2018-06-11T09:51:55.078Z,23.60
2018-06-11T09:56:58.296Z,23.60
2018-06-11T10:02:01.504Z,23.70
2018-06-11T10:07:04.730Z,23.80
2018-06-11T10:12:08.000Z,23.90
2018-06-11T10:17:11.272Z,24.00
2018-06-11T10:22:14.539Z,24.00
2018-06-11T10:27:17.776Z,24.00
2018-06-11T10:32:21.014Z,24.10
2018-06-11T10:37:24.268Z,24.20
2018-06-11T10:42:27.920Z,24.30
2018-06-11T10:47:31.530Z,24.40
2018-06-11T10:52:34.771Z,24.50
2018-06-11T10:57:38.012Z,24.50
2018-06-11T11:02:41.247Z,24.50
2018-06-11T11:07:44.659Z,24.60
2018-06-11T11:12:47.919Z,24.80
2018-06-11T11:17:51.139Z,24.80
2018-06-11T11:22:54.375Z,24.80
2018-06-11T11:27:57.592Z,24.90
2018-06-11T11:33:00.809Z,24.90
2018-06-11T11:38:04.024Z,24.90
2018-06-11T11:43:07.224Z,24.90
2018-06-11T11:48:10.435Z,25.00
2018-06-11T11:53:13.667Z,24.90
2018-06-11T11:58:16.908Z,24.90
2018-06-11T12:03:20.159Z,25.10
2018-06-11T12:08:23.379Z,25.20
2018-06-11T12:13:26.639Z,25.20
2018-06-11T12:18:29.991Z,25.10
2018-06-11T12:23:33.253Z,25.20
2018-06-11T12:28:36.522Z,25.10
2018-06-11T12:33:39.791Z,25.10
2018-06-11T12:38:47.075Z,25.20
2018-06-11T12:43:50.327Z,25.20
2018-06-11T12:48:53.595Z,25.20
2018-06-11T12:53:59.476Z,25.30
2018-06-11T12:59:02.728Z,25.20
2018-06-11T13:04:05.999Z,25.30
2018-06-11T13:09:09.235Z,25.30
2018-06-11T13:14:12.528Z,25.30
2018-06-11T13:19:15.807Z,25.20
2018-06-11T13:24:19.061Z,25.40
2018-06-11T13:29:22.353Z,25.40
2018-06-11T13:34:25.974Z,25.20
2018-06-11T13:39:29.266Z,25.30
2018-06-11T13:44:32.503Z,25.30
2018-06-11T13:49:35.795Z,25.30
2018-06-11T13:54:39.045Z,25.10
2018-06-11T13:59:42.292Z,25.20
2018-06-11T14:04:45.535Z,25.40
2018-06-11T14:09:48.810Z,25.40
2018-06-11T14:14:52.082Z,25.40
2018-06-11T14:19:55.336Z,25.40
2018-06-11T14:24:58.682Z,25.50
2018-06-11T14:30:01.948Z,25.50
2018-06-11T14:35:05.221Z,25.60
2018-06-11T14:40:08.471Z,25.60
2018-06-11T14:45:11.687Z,25.60
2018-06-11T14:55:17.992Z,25.80
2018-06-11T15:00:21.227Z,25.90
2018-06-11T15:05:24.863Z,25.90
2018-06-11T15:10:28.164Z,25.90
2018-06-11T15:15:31.437Z,25.90
2018-06-11T15:20:34.716Z,25.90
2018-06-11T15:25:37.937Z,25.90
2018-06-11T15:30:41.215Z,25.80
2018-06-11T15:35:44.460Z,25.80
2018-06-11T15:40:47.966Z,25.90
2018-06-11T15:45:51.196Z,25.90
2018-06-11T15:50:54.452Z,25.90
2018-06-11T15:55:57.689Z,25.90
2018-06-11T16:01:01.305Z,25.90
2018-06-11T16:06:04.548Z,25.90
2018-06-11T16:11:07.993Z,25.80
2018-06-11T16:16:11.227Z,25.90
2018-06-11T16:21:14.495Z,25.90
2018-06-11T16:26:17.755Z,25.90
2018-06-11T16:31:21.015Z,25.80
2018-06-11T16:36:24.290Z,25.80
2018-06-11T16:41:27.535Z,25.80
2018-06-11T16:46:30.797Z,25.80
2018-06-11T16:51:34.408Z,25.80
2018-06-11T16:56:37.660Z,25.70
2018-06-11T17:01:40.922Z,25.70
2018-06-11T17:06:44.183Z,25.60
2018-06-11T17:11:47.452Z,25.70
2018-06-11T17:16:50.700Z,25.70
2018-06-11T17:21:53.935Z,25.60
2018-06-11T17:26:57.153Z,25.60
2018-06-11T17:32:00.456Z,25.20
2018-06-11T17:37:03.718Z,25.20
2018-06-11T17:42:07.528Z,25.30
2018-06-11T17:47:10.761Z,25.30
2018-06-11T17:52:14.060Z,25.20
2018-06-11T17:57:17.285Z,25.10
2018-06-11T18:02:20.546Z,25.10
2018-06-11T18:07:23.793Z,25.20
2018-06-11T18:12:27.035Z,25.40
2018-06-11T18:17:30.631Z,25.40
2018-06-11T18:22:33.951Z,25.40
2018-06-11T18:27:37.182Z,25.50
2018-06-11T18:32:40.388Z,25.40
2018-06-11T18:37:43.588Z,25.40
2018-06-11T18:42:47.387Z,25.30
2018-06-11T18:47:50.608Z,25.30
2018-06-11T18:52:53.855Z,25.30
2018-06-11T18:57:57.211Z,25.20
2018-06-11T19:03:00.447Z,25.20
2018-06-11T19:08:03.696Z,25.20
2018-06-11T19:13:07.000Z,25.20
2018-06-11T19:18:10.278Z,25.20
2018-06-11T19:23:13.705Z,25.10
2018-06-11T19:28:16.961Z,25.10
2018-06-11T19:33:20.333Z,25.00
2018-06-11T19:38:23.571Z,25.00
2018-06-11T19:43:26.829Z,24.90
2018-06-11T19:48:30.052Z,24.90
2018-06-11T19:53:33.336Z,24.80
2018-06-11T19:58:36.610Z,24.80
2018-06-11T20:03:39.860Z,24.80
2018-06-11T20:08:43.152Z,24.80
2018-06-11T20:13:46.366Z,24.80
2018-06-11T20:18:49.623Z,24.70
2018-06-11T20:23:52.880Z,24.70
2018-06-11T20:28:56.142Z,24.60
2018-06-11T20:33:59.388Z,24.60
2018-06-11T20:39:02.644Z,24.50
2018-06-11T20:44:05.903Z,24.50
2018-06-11T20:49:09.139Z,24.40
2018-06-11T20:54:12.400Z,24.40
2018-06-11T20:59:15.661Z,24.40
2018-06-11T21:04:18.899Z,24.40
2018-06-11T21:09:22.189Z,24.30
2018-06-11T21:14:25.455Z,24.30
2018-06-11T21:19:28.703Z,24.20
2018-06-11T21:24:31.959Z,24.20
2018-06-11T21:29:35.194Z,24.20
2018-06-11T21:34:38.456Z,24.10
2018-06-11T21:39:41.708Z,24.10
2018-06-11T21:44:45.026Z,24.10
2018-06-11T21:49:48.276Z,24.00
2018-06-11T21:54:51.519Z,24.00
2018-06-11T21:59:54.788Z,23.90
2018-06-11T22:04:58.040Z,23.90
2018-06-11T22:10:01.343Z,23.80
2018-06-11T22:15:05.032Z,23.80
2018-06-11T22:20:08.336Z,23.70
2018-06-11T22:25:11.579Z,23.70
2018-06-11T22:30:14.893Z,23.60
2018-06-11T22:35:18.096Z,23.60
2018-06-11T22:40:21.327Z,23.50
2018-06-11T22:45:24.596Z,23.50
2018-06-11T22:50:27.867Z,23.40
2018-06-11T22:55:31.271Z,23.40
2018-06-11T23:00:35.215Z,23.40
2018-06-11T23:05:38.648Z,23.30
2018-06-11T23:10:41.924Z,23.10
2018-06-11T23:15:45.173Z,23.30
2018-06-11T23:20:48.419Z,23.20
2018-06-11T23:25:51.643Z,23.20
2018-06-11T23:30:54.876Z,22.70
2018-06-11T23:35:58.135Z,23.10
2018-06-11T23:41:01.417Z,23.00
2018-06-11T23:46:04.638Z,23.00
2018-06-11T23:51:07.870Z,22.90
2018-06-11T23:56:11.129Z,22.50
